Latest Weather Observations for Mawson*

IDT60801

Issued at 9:02 pm EDT Sunday 25 January 2015 (issued every 30 minutes, with the page automatically refreshed every 10 minutes)

About weather observations | Map of weather stations | Latest weather observations for ANT | Other Formats
Station Details ID: 300001 Name: MAWSON Lat: -67.60 Lon: 62.88 Height: 9.9 m
Data from the previous 72 hours. | See also: Recent months at Mawson*
Date/Time
EDT
Temp
°C
App
Temp
°C
Dew
Point
Rel
Hum
%
Delta-T
°C
Wind Press
QNH
hPa
Press
MSL
hPa
Rain
since 9 am
mm
Dir
 
Spd
km/h
Gust
km/h
Spd
kts
Gust
kts
25/09:00pm 2.9 -10.2 -7.8 45 - SE 54 63 29 34 977.5 - -
25/08:30pm 3.0 -9.7 -7.2 47 - SE 52 61 28 33 977.3 - -
25/08:00pm 2.8 -10.3 -7.9 45 - SE 54 63 29 34 977.1 977.2 -
25/07:30pm 2.7 -10.5 -8.9 42 - SE 54 78 29 42 977.3 - -
25/07:28pm 2.7 -9.7 -8.3 44 - SE 50 74 27 40 977.1 - -
25/07:00pm 2.6 -9.5 -8.7 43 - SE 48 61 26 33 977.4 - -
25/06:30pm 2.2 -11.0 -8.8 44 - SE 54 67 29 36 977.3 - -
25/06:00pm 1.8 -11.3 -7.8 49 - SE 54 74 29 40 977.3 - -
25/05:56pm 2.0 -11.2 -8.4 46 - SE 54 74 29 40 977.2 - -
25/05:30pm 1.9 -11.7 -8.8 45 - SE 56 69 30 37 977.3 - -
25/05:00pm 1.7 -11.9 -8.4 47 - SE 56 65 30 35 977.2 977.3 -
25/04:30pm 2.1 -10.7 -8.9 44 - SE 52 63 28 34 976.9 - -
25/04:00pm 1.4 -11.6 -10.4 41 - SE 52 67 28 36 976.8 - -
25/03:46pm 1.4 -12.2 -9.2 45 - SE 56 74 30 40 976.8 - -
25/03:30pm 1.4 -13.2 -9.8 43 - SE 61 74 33 40 976.5 - -
25/03:00pm 1.0 -11.5 -9.0 47 - SE 50 61 27 33 976.7 - -
25/02:45pm 1.1 -10.3 -9.2 46 - SSE 44 63 24 34 976.8 - -
25/02:30pm 0.8 -10.6 -9.2 47 - SSE 44 56 24 30 976.6 - -
25/02:22pm 0.6 -9.8 -9.1 48 - SSE 39 46 21 25 976.7 - -
25/02:00pm 0.7 -13.9 -9.6 46 - SE 61 74 33 40 976.6 976.6 -
25/01:30pm 0.4 -14.2 -9.3 48 - SE 61 83 33 45 976.7 - -
25/01:17pm 0.3 -15.1 -9.7 47 - SE 65 83 35 45 976.5 - -
25/01:00pm -0.2 -15.5 -8.6 53 - SE 65 76 35 41 976.8 - -
25/12:35pm -0.7 -16.0 -8.1 57 - SE 65 83 35 45 976.7 - -
25/12:30pm -0.5 -15.0 -8.4 55 - SE 61 74 33 40 976.8 - -
25/12:11pm -0.3 -14.5 -8.7 53 - SE 59 78 32 42 976.8 - -
25/12:00pm -0.3 -14.1 -8.7 53 - ESE 57 72 31 39 976.9 - -
25/11:30am -0.6 -13.8 -8.5 55 - SE 54 67 29 36 977.1 - -
25/11:00am -0.4 -14.5 -8.3 55 - SE 59 70 32 38 977.1 977.2 -
25/10:30am -0.6 -14.2 -8.5 55 - SE 56 70 30 38 977.1 - -
25/10:00am -1.1 -14.8 -7.4 62 - SE 57 70 31 38 977.3 - -
25/09:30am -1.2 -14.3 -6.9 65 - SE 54 65 29 35 976.9 - -
25/09:00am -1.0 -14.4 -6.9 64 - SE 56 67 30 36 977.0 - -
25/08:30am -0.9 -14.5 -6.8 64 - SE 57 72 31 39 976.8 - -
25/08:00am -1.1 -14.7 -6.8 65 - SE 57 72 31 39 976.9 976.9 -
25/07:30am -1.3 -14.9 -6.4 68 - SE 57 67 31 36 976.7 - -
25/07:00am -1.2 -15.2 -6.7 66 - SE 59 69 32 37 976.6 - -
25/06:30am -1.4 -15.7 -6.1 70 - SE 61 72 33 39 976.6 - -
25/06:00am -1.3 -15.7 -6.8 66 - SE 61 74 33 40 976.9 - -
25/05:30am -1.0 -14.6 -7.1 63 - ESE 57 76 31 41 976.4 - -
25/05:19am -1.3 -13.6 -6.8 66 - ESE 50 69 27 37 976.8 - -
25/05:15am -1.0 -12.2 -7.1 63 - ESE 44 59 24 32 976.9 - -
25/05:00am -0.5 -15.7 -7.5 59 - SE 65 83 35 45 976.4 976.4 -
25/04:57am -1.0 -15.0 -6.9 64 - ESE 59 80 32 43 976.4 - -
25/04:30am -1.5 -15.0 -5.3 75 - SE 57 69 31 37 976.6 - -
25/04:00am -1.3 -15.1 -5.3 74 - SE 59 76 32 41 976.3 - -
25/03:30am -1.5 -16.0 -4.7 79 - SE 63 72 34 39 976.0 - -
25/03:04am -0.8 -14.3 -5.4 71 - ESE 57 76 31 41 976.0 - -
25/03:00am -0.8 -15.1 -5.6 70 - SE 61 76 33 41 976.0 - -
25/02:30am -1.3 -15.4 -4.3 80 - SE 61 74 33 40 975.9 - -
25/02:00am -0.6 -14.5 -5.6 69 - ESE 59 72 32 39 976.0 976.0 -
25/01:53am -0.7 -13.6 -5.3 71 - ESE 54 72 29 39 975.7 - -
25/01:30am -0.4 -13.3 -5.4 69 - ESE 54 69 29 37 975.8 - -
25/01:05am -0.1 -12.3 -5.9 65 - ESE 50 69 27 37 975.8 - -
25/01:00am -0.1 -11.9 -5.3 68 - ESE 48 59 26 32 975.8 - -
25/12:38am -0.2 -12.3 -5.4 68 - ESE 50 69 27 37 975.8 - -
25/12:30am -0.2 -12.7 -4.8 71 - ESE 52 65 28 35 975.9 - -
25/12:00am 0.0 -12.9 -5.2 68 - ESE 54 65 29 35 975.7 - -
 
Date/Time
EDT
Temp
°C
App
Temp
°C
Dew
Point
Rel
Hum
%
Delta-T
°C
Wind Press
QNH
hPa
Press
MSL
hPa
Rain
since 9 am
mm
Dir
 
Spd
km/h
Gust
km/h
Spd
kts
Gust
kts
24/11:30pm 0.2 -11.5 -5.2 67 - ESE 48 61 26 33 976.0 - -
24/11:19pm 0.4 -10.6 -5.4 65 - ESE 44 63 24 34 975.9 - -
24/11:00pm 0.5 -10.6 -6.1 61 - ESE 44 56 24 30 975.7 975.7 -
24/10:30pm 0.4 -10.6 -5.4 65 - ESE 44 61 24 33 975.5 - -
24/10:04pm 0.3 -11.4 -4.9 68 - ESE 48 69 26 37 975.4 - -
24/10:00pm 0.3 -10.7 -4.9 68 - ESE 44 56 24 30 975.4 - -
24/09:30pm 0.3 -12.1 -4.1 72 - E 52 63 28 34 975.6 - -
24/09:00pm 0.4 -12.3 -3.7 74 - E 54 65 29 35 975.4 - -
24/08:30pm 0.4 -12.9 -3.9 73 - ESE 57 67 31 36 974.9 - -
24/08:00pm 0.0 -14.1 -3.7 76 - E 61 72 33 39 974.7 974.7 -
24/07:33pm 0.8 -11.7 -5.0 65 - ESE 52 72 28 39 974.2 - -
24/07:30pm 0.8 -11.3 -5.0 65 - ESE 50 59 27 32 974.3 - -
24/07:00pm 0.8 -12.0 -4.6 67 - ESE 54 70 29 38 973.8 - -
24/06:51pm 0.8 -12.6 -4.8 66 - ESE 57 76 31 41 973.7 - -
24/06:30pm 0.6 -13.6 -5.0 66 - ESE 61 74 33 40 973.6 - -
24/06:03pm 0.5 -12.9 -4.9 67 - ESE 57 78 31 42 973.4 - -
24/06:00pm 0.4 -13.0 -5.0 67 - ESE 57 70 31 38 973.5 - -
24/05:36pm 0.2 -13.9 -4.4 71 - ESE 61 80 33 43 973.3 - -
24/05:30pm 0.0 -14.5 -4.2 73 - ESE 63 76 34 41 973.2 - -
24/05:01pm -0.3 -14.0 -4.2 75 - ESE 59 78 32 42 973.6 - -
24/05:00pm -0.4 -14.1 -3.8 78 - ESE 59 76 32 41 973.6 973.6 -
24/04:39pm -0.9 -15.8 -4.2 78 - SE 65 83 35 45 973.4 - -
24/04:30pm -0.8 -14.9 -4.5 76 - ESE 61 74 33 40 973.4 - -
24/04:00pm -1.3 -17.0 -4.6 78 - SE 69 87 37 47 973.4 - -
24/03:52pm -1.3 -17.0 -4.8 77 - SE 69 87 37 47 973.3 - -
24/03:30pm -1.8 -17.5 -5.1 78 - SE 69 80 37 43 973.1 - -
24/03:00pm -2.0 -17.3 -5.0 80 - SE 67 76 36 41 973.0 - -
24/02:30pm -2.3 -18.2 -5.3 80 - SE 70 82 38 44 972.9 - -
24/02:00pm -2.7 -19.1 -5.7 80 - SE 72 87 39 47 972.9 972.9 -
24/01:30pm -2.7 -19.5 -6.7 74 - SE 74 87 40 47 972.8 - -
24/01:00pm -3.1 -21.1 -6.7 76 - SE 80 95 43 51 972.6 - -
24/12:30pm -3.3 -21.8 -6.7 77 - ESE 83 106 45 57 971.6 - -
24/12:00pm -3.1 -20.0 -7.4 72 - SE 74 95 40 51 972.5 - -
24/11:30am -2.7 -19.7 -8.3 65 - ESE 74 96 40 52 973.0 - -
24/11:08am -3.0 -19.6 -8.1 68 - SE 72 91 39 49 972.8 - -
24/11:00am -3.0 -19.6 -8.1 68 - ESE 72 89 39 48 973.2 973.2 -
24/10:30am -3.0 -19.2 -8.1 68 - ESE 70 89 38 48 972.7 - -
24/10:01am -3.1 -17.9 -7.8 70 - ESE 63 85 34 46 973.0 - -
24/10:00am -3.1 -18.0 -8.0 69 - ESE 63 80 34 43 973.2 - -
24/09:31am -3.0 -17.5 -8.2 67 - ESE 61 80 33 43 973.6 - -
24/09:30am -3.1 -17.6 -8.0 69 - SE 61 74 33 40 973.7 - -
24/09:13am -2.9 -17.0 -8.3 66 - SE 59 78 32 42 973.6 - -
24/09:00am -3.0 -16.5 -8.1 68 - SE 56 72 30 39 974.2 - -
24/08:40am -2.6 -17.5 -8.7 63 - SE 63 82 34 44 974.0 - -
24/08:30am -2.5 -18.2 -8.6 63 - SE 67 83 36 45 973.9 - -
24/08:12am -2.7 -17.2 -8.5 64 - SE 61 80 33 43 973.9 - -
24/08:00am -2.8 -17.3 -8.2 66 - SE 61 74 33 40 974.1 974.1 -
24/07:30am -2.7 -17.2 -8.3 65 - SE 61 70 33 38 974.5 - -
24/07:04am -2.5 -17.0 -8.6 63 - SE 61 80 33 43 974.5 - -
24/07:00am -2.6 -16.3 -8.3 65 - SE 57 74 31 40 974.5 - -
24/06:30am -2.5 -16.0 -7.8 67 - SE 56 69 30 37 974.9 - -
24/06:00am -2.4 -16.2 -8.5 63 - SE 57 76 31 41 975.2 - -
24/05:56am -2.0 -15.8 -8.9 59 - SE 57 76 31 41 975.1 - -
24/05:30am -2.2 -15.9 -8.3 63 - SE 57 69 31 37 975.4 - -
24/05:00am -2.2 -15.8 -8.5 62 - SE 56 67 30 36 975.3 975.3 -
24/04:30am -2.1 -15.9 -8.6 61 - SE 57 69 31 37 975.5 - -
24/04:00am -2.1 -13.7 -8.0 64 - SE 46 61 25 33 975.6 - -
24/03:30am -1.7 -15.3 -8.6 59 - ESE 56 65 30 35 975.3 - -
24/03:01am -1.4 -14.6 -8.6 58 - ESE 54 72 29 39 974.9 - -
24/03:00am -1.4 -15.0 -8.8 57 - ESE 56 72 30 39 974.9 - -
24/02:30am -1.1 -12.8 -8.7 56 - ESE 46 67 25 36 975.4 - -
24/02:28am -1.1 -13.2 -8.5 57 - ESE 48 67 26 36 975.4 - -
24/02:00am -1.1 -12.4 -8.5 57 - ESE 44 57 24 31 976.0 976.0 -
24/01:30am -0.9 -13.0 -8.6 56 - ESE 48 69 26 37 976.2 - -
24/01:08am -0.7 -11.8 -8.4 56 - ESE 43 63 23 34 976.4 - -
24/01:00am -0.6 -11.3 -8.5 55 - ESE 41 54 22 29 976.6 - -
24/12:30am -0.5 -12.2 -8.9 53 - ESE 46 65 25 35 976.8 - -
24/12:08am -0.6 -11.7 -8.3 56 - ESE 43 61 23 33 977.1 - -
24/12:00am -0.5 -12.1 -7.7 58 - ESE 46 59 25 32 977.1 - -
 
Date/Time
EDT
Temp
°C
App
Temp
°C
Dew
Point
Rel
Hum
%
Delta-T
°C
Wind Press
QNH
hPa
Press
MSL
hPa
Rain
since 9 am
mm
Dir
 
Spd
km/h
Gust
km/h
Spd
kts
Gust
kts
23/11:42pm -0.1 -11.4 -8.8 52 - ESE 44 63 24 34 977.2 - -
23/11:30pm -0.3 -11.4 -8.0 56 - ESE 43 59 23 32 977.4 - -
23/11:00pm -0.1 -11.7 -8.0 55 - ESE 46 59 25 32 977.5 977.6 -
23/10:56pm -0.1 -12.5 -7.6 57 - ESE 50 69 27 37 977.5 - -
23/10:30pm 0.2 -12.9 -7.3 57 - SE 54 69 29 37 977.3 - -
23/10:00pm 0.1 -12.7 -8.1 54 - ESE 52 70 28 38 977.7 - -
23/09:30pm 0.6 -11.8 -8.1 52 - ESE 50 76 27 41 978.0 - -
23/09:23pm 1.0 -10.2 -9.6 45 - ESE 43 61 23 33 977.8 - -
23/09:00pm 0.7 -9.6 -8.0 52 - ESE 39 54 21 29 978.4 - -
23/08:30pm 0.6 -9.7 -7.9 53 - ESE 39 50 21 27 978.6 - -
23/08:00pm 0.5 -9.9 -8.7 50 - ESE 39 54 21 29 979.0 979.1 -
23/07:41pm 0.5 -10.2 -7.9 53 - E 41 59 22 32 979.0 - -
23/07:30pm 0.3 -10.3 -7.2 57 - ESE 41 52 22 28 979.1 - -
23/07:00pm 0.7 -10.5 -9.3 47 - ESE 43 54 23 29 979.2 - -
23/06:30pm 0.4 -9.9 -8.3 52 - ESE 39 59 21 32 979.7 - -
23/06:20pm 0.4 -10.7 -8.0 53 - ESE 43 63 23 34 979.6 - -
23/06:00pm 0.3 -10.5 -9.1 49 - ESE 41 56 22 30 979.8 - -
23/05:42pm 0.6 -10.2 -9.4 47 - ESE 41 61 22 33 979.9 - -
23/05:30pm 0.4 -10.4 -9.0 49 - ESE 41 54 22 29 980.0 - -
23/05:00pm 0.1 -11.3 -9.6 48 - ESE 44 59 24 32 980.2 980.3 -
23/04:46pm 0.0 -11.1 -8.7 52 - ESE 43 61 23 33 980.1 - -
23/04:30pm -0.3 -11.4 -8.9 52 - ESE 43 57 23 31 980.4 - -
23/04:00pm -0.8 -11.9 -8.7 55 - ESE 43 56 23 30 980.6 - -
23/03:30pm -1.3 -12.6 -8.7 57 - ESE 44 57 24 31 980.7 - -
23/03:15pm -1.5 -13.2 -8.2 60 - ESE 46 65 25 35 980.9 - -
23/03:00pm -1.8 -15.5 -8.3 61 - SE 57 69 31 37 980.9 - -
23/02:30pm -1.6 -14.8 -8.5 59 - ESE 54 69 29 37 980.9 - -
23/02:00pm -2.1 -15.9 -9.2 58 - ESE 57 74 31 40 980.9 981.0 -
23/01:30pm -2.5 -15.7 -9.0 61 - ESE 54 69 29 37 981.6 - -
23/01:23pm -2.3 -14.8 -9.9 56 - ESE 50 69 27 37 981.7 - -
23/01:00pm -2.6 -15.1 -9.3 60 - ESE 50 65 27 35 982.1 - -
23/12:32pm -2.5 -12.6 -9.8 57 - ESE 37 56 20 30 982.9 - -
23/12:30pm -2.5 -13.0 -10.0 56 - ESE 39 56 21 30 982.9 - -
23/12:00pm -2.6 -13.1 -10.4 55 - ESE 39 50 21 27 983.6 - -
23/11:47am -2.4 -12.5 -10.6 53 - ESE 37 56 20 30 983.7 - -
23/11:30am -2.6 -12.7 -10.6 54 - ESE 37 48 20 26 984.1 - -
23/11:00am -3.0 -13.9 -10.5 56 - ESE 41 54 22 29 984.8 984.9 -
23/10:43am -2.9 -13.1 -11.1 53 - ESE 37 57 20 31 984.8 - -
23/10:30am -2.9 -12.7 -10.9 54 - ESE 35 46 19 25 985.2 - -
23/10:00am -3.0 -13.2 -11.0 54 - ESE 37 46 20 25 986.0 - -
23/09:30am -3.1 -12.8 -10.6 56 - ESE 35 46 19 25 986.3 - -
23/09:10am -3.2 -12.0 -10.5 57 - ESE 30 52 16 28 986.5 - -
23/09:00am -3.0 -12.2 -11.2 53 - ESE 32 43 17 23 986.8 - -
23/08:30am -3.2 -12.4 -10.7 56 - ESE 32 52 17 28 987.0 - -
23/08:29am -3.2 -12.4 -10.9 55 - ESE 32 52 17 28 987.0 - -
23/08:00am -3.3 -12.1 -10.4 58 - ESE 30 41 16 22 987.3 987.4 -
23/07:56am -3.0 -12.4 -11.0 54 - ESE 33 52 18 28 987.3 - -
23/07:30am -3.3 -13.8 -10.4 58 - ESE 39 54 21 29 987.5 - -
23/07:17am -2.9 -11.3 -10.9 54 - ESE 28 50 15 27 987.7 - -
23/07:00am -3.2 -14.6 -10.3 58 - SE 44 57 24 31 988.1 - -
23/06:34am -3.3 -14.5 -10.1 59 - ESE 43 63 23 34 987.9 - -
23/06:30am -3.2 -13.6 -9.8 60 - ESE 39 54 21 29 988.2 - -
23/06:27am -3.1 -12.4 -10.0 59 - ESE 33 46 18 25 988.5 - -
23/06:00am -2.9 -10.1 -9.6 60 - E 22 28 12 15 989.0 - -
23/05:30am -3.0 -9.6 -9.2 62 - E 19 28 10 15 989.6 - -
23/05:00am -2.4 -9.6 -10.0 56 - ESE 22 28 12 15 990.0 990.1 -
23/04:30am -2.2 -9.8 -10.0 55 - ESE 24 30 13 16 990.2 - -
23/04:00am -2.2 -10.1 -9.1 59 - ESE 26 32 14 17 990.6 - -
23/03:30am -2.2 -10.1 -9.1 59 - ESE 26 32 14 17 990.9 - -
23/03:00am -1.6 -8.8 -9.7 54 - ESE 22 32 12 17 991.4 - -
23/02:30am -1.5 -7.3 -8.4 59 - E 15 20 8 11 991.8 - -

Other Formats:

Comma delimited format used in spreadsheet applications
http://www.bom.gov.au/fwo/IDT60803/IDT60803.89564.axf

JavaScript Object Notation format (JSON) in row-major order
http://www.bom.gov.au/fwo/IDT60803/IDT60803.89564.json